Terminal Aerodrome Forecast
Issued by NWS

Home | Current Version | Previous Version | Text Only | Print | Product List | Glossary On
Versions: 1 2 3 4 5 6 7 8 9 10 11 12 13 14 15 16 17 18 19 20 21 22 23 24 25 26 27 28 29 30 31 32 33 34 35 36 37
890
FTUS42 KCAE 231123
TAFDNL
TAF
KDNL 231123Z 2312/2412 22006KT P6SM VCSH BKN025 OVC110
     FM231300 23007KT 3SM -SHRA OVC008
     FM231700 28011G20KT P6SM VCSH BKN020 OVC030
     FM240000 29013G23KT P6SM SCT035
     FM240800 28011KT P6SM SKC=

USA.gov is the U.S. government's official web portal to all federal, state and local government web resources and services.